Lobo

Go HERE for most recent data if this page is not up to date.

Jump to table bottom
Date/Time Temp deg F RH % 24 Hr Snow (in) Snow Depth (in) H2O (in)
12/08 12:00 24.4 71 3.8 28.4 0.01
12/08 11:00 24.6 86 3.7 28.3 0.01
12/08 10:00 24.9 93 3.6 28.2 0.09
12/08 09:00 25.2 89 2.4 27.1 0.01
12/08 08:00 25.7 89 2.3 27.0 0.01
12/08 07:00 25.9 88 2.4 27.3 0.00
12/08 06:00 25.5 92 2.4 27.3 0.03
12/08 05:00 25.6 95 1.9 26.8 0.02
12/08 04:00 25.3 94 1.6 26.5 0.02
12/08 03:00 25.2 95 1.4 26.1 0.04
12/08 02:00 25.0 95 0.9 25.5 0.03
12/08 01:00 25.2 96 0.5 25.2 0.00
12/08 00:00 25.5 85 0.3 24.9 0.00
12/07 23:00 25.1 84 0.3 25.0 0.00
12/07 22:00 24.9 81 0.3 25.0 0.00
12/07 21:00 24.6 83 0.3 24.9 0.00
12/07 20:00 24.5 87 0.3 24.9 0.00
12/07 19:00 24.5 83 0.3 25.0 0.00
12/07 18:00 24.5 81 0.3 25.0 0.00
12/07 17:00 24.6 81 0.3 24.9 0.00
12/07 16:00 24.6 85 0.2 24.8 0.01
12/07 15:00 24.1 87 0.3 24.8 0.00
12/07 14:00 25.9 85 0.2 24.6 0.00
12/07 13:00 25.2 82 0.2 24.8 0.00
12/07 12:00 26.2 85 0.2 24.4 0.00
12/07 11:00 25.9 75 0.3 24.7 0.00
12/07 10:00 25.8 74 0.3 24.8 0.00
12/07 09:00 25.1 70 0.4 24.9 0.00
12/07 08:00 25.1 74 0.3 24.9 0.00
12/07 07:00 24.2 74 0.4 24.9 0.00
12/07 06:00 24.0 73 0.4 25.0 0.00
12/07 05:00 24.8 70 0.4 24.9 0.00
12/07 04:00 24.2 69 0.5 25.3 0.00
12/07 03:00 22.9 70 0.5 25.3 0.00
12/07 02:00 20.6 82 0.3 24.8 0.00
12/07 01:00 19.8 92 0.3 24.9 0.00
12/07 00:00 19.3 92 0.3 24.9 0.00
.